sensor_id;sensor_type;location;lat;lon;timestamp;temperature;humidity
69546;SHT31;56766;52.260;20.746;2023-02-01T00:00:54;3.64;90.27
69546;SHT31;56766;52.260;20.746;2023-02-01T00:03:26;3.65;90.24
69546;SHT31;56766;52.260;20.746;2023-02-01T00:05:58;3.66;90.24
69546;SHT31;56766;52.260;20.746;2023-02-01T00:08:26;3.66;90.19
69546;SHT31;56766;52.260;20.746;2023-02-01T00:11:08;3.65;90.20
69546;SHT31;56766;52.260;20.746;2023-02-01T00:13:39;3.65;90.19
69546;SHT31;56766;52.260;20.746;2023-02-01T00:18:44;3.64;90.11
69546;SHT31;56766;52.260;20.746;2023-02-01T00:21:13;3.63;90.01
69546;SHT31;56766;52.260;20.746;2023-02-01T00:23:42;3.61;89.92
69546;SHT31;56766;52.260;20.746;2023-02-01T00:26:19;3.60;89.78
69546;SHT31;56766;52.260;20.746;2023-02-01T00:28:57;3.59;89.70
69546;SHT31;56766;52.260;20.746;2023-02-01T00:31:24;3.59;89.66
69546;SHT31;56766;52.260;20.746;2023-02-01T00:33:50;3.61;89.50
69546;SHT31;56766;52.260;20.746;2023-02-01T00:36:17;3.63;89.48
69546;SHT31;56766;52.260;20.746;2023-02-01T00:38:44;3.64;89.40
69546;SHT31;56766;52.260;20.746;2023-02-01T00:41:14;3.63;89.49
69546;SHT31;56766;52.260;20.746;2023-02-01T00:43:43;3.62;89.44
69546;SHT31;56766;52.260;20.746;2023-02-01T00:46:12;3.60;89.39
69546;SHT31;56766;52.260;20.746;2023-02-01T00:48:40;3.58;89.27
69546;SHT31;56766;52.260;20.746;2023-02-01T00:51:10;3.57;88.92
69546;SHT31;56766;52.260;20.746;2023-02-01T00:53:39;3.54;88.90
69546;SHT31;56766;52.260;20.746;2023-02-01T00:56:06;3.49;88.98
69546;SHT31;56766;52.260;20.746;2023-02-01T00:58:34;3.44;88.90
69546;SHT31;56766;52.260;20.746;2023-02-01T01:01:03;3.40;88.93
69546;SHT31;56766;52.260;20.746;2023-02-01T01:03:42;3.39;88.73
69546;SHT31;56766;52.260;20.746;2023-02-01T01:06:14;3.35;88.65
69546;SHT31;56766;52.260;20.746;2023-02-01T01:08:43;3.27;88.71
69546;SHT31;56766;52.260;20.746;2023-02-01T01:11:19;3.23;88.70
69546;SHT31;56766;52.260;20.746;2023-02-01T01:13:50;3.17;88.66
69546;SHT31;56766;52.260;20.746;2023-02-01T01:16:19;3.12;88.60
69546;SHT31;56766;52.260;20.746;2023-02-01T01:18:47;3.08;88.51
69546;SHT31;56766;52.260;20.746;2023-02-01T01:21:16;3.09;88.65
69546;SHT31;56766;52.260;20.746;2023-02-01T01:23:44;3.10;88.77
69546;SHT31;56766;52.260;20.746;2023-02-01T01:26:15;3.10;88.77
69546;SHT31;56766;52.260;20.746;2023-02-01T01:28:45;3.13;88.75
69546;SHT31;56766;52.260;20.746;2023-02-01T01:31:14;3.16;88.65
69546;SHT31;56766;52.260;20.746;2023-02-01T01:33:42;3.16;88.33
69546;SHT31;56766;52.260;20.746;2023-02-01T01:36:11;3.12;88.05
69546;SHT31;56766;52.260;20.746;2023-02-01T01:38:41;3.04;87.99
69546;SHT31;56766;52.260;20.746;2023-02-01T01:41:13;2.98;88.12
69546;SHT31;56766;52.260;20.746;2023-02-01T01:43:54;2.91;88.21
69546;SHT31;56766;52.260;20.746;2023-02-01T01:46:35;2.88;88.03
69546;SHT31;56766;52.260;20.746;2023-02-01T01:49:13;2.87;88.02
69546;SHT31;56766;52.260;20.746;2023-02-01T01:51:52;2.87;87.99
69546;SHT31;56766;52.260;20.746;2023-02-01T01:54:31;2.91;87.83
69546;SHT31;56766;52.260;20.746;2023-02-01T01:57:06;2.94;88.03
69546;SHT31;56766;52.260;20.746;2023-02-01T01:59:41;2.98;88.15
69546;SHT31;56766;52.260;20.746;2023-02-01T02:02:13;3.00;88.08
69546;SHT31;56766;52.260;20.746;2023-02-01T02:04:40;3.02;87.94
69546;SHT31;56766;52.260;20.746;2023-02-01T02:07:17;3.04;87.65
69546;SHT31;56766;52.260;20.746;2023-02-01T02:09:47;3.04;87.59
69546;SHT31;56766;52.260;20.746;2023-02-01T02:12:14;3.02;87.50
69546;SHT31;56766;52.260;20.746;2023-02-01T02:14:41;3.03;87.17
69546;SHT31;56766;52.260;20.746;2023-02-01T02:32:17;3.09;86.95
69546;SHT31;56766;52.260;20.746;2023-02-01T02:38:05;3.05;87.17
69546;SHT31;56766;52.260;20.746;2023-02-01T02:41:02;3.02;87.08
69546;SHT31;56766;52.260;20.746;2023-02-01T02:43:44;2.98;87.19
69546;SHT31;56766;52.260;20.746;2023-02-01T02:46:37;2.91;87.32
69546;SHT31;56766;52.260;20.746;2023-02-01T02:49:29;2.88;87.39
69546;SHT31;56766;52.260;20.746;2023-02-01T02:52:15;2.83;87.49
69546;SHT31;56766;52.260;20.746;2023-02-01T02:55:06;2.81;87.61
69546;SHT31;56766;52.260;20.746;2023-02-01T02:57:41;2.82;87.68
69546;SHT31;56766;52.260;20.746;2023-02-01T03:00:34;2.84;87.80
69546;SHT31;56766;52.260;20.746;2023-02-01T03:03:21;2.86;87.83
69546;SHT31;56766;52.260;20.746;2023-02-01T03:06:13;2.89;87.81
69546;SHT31;56766;52.260;20.746;2023-02-01T03:08:42;2.92;87.88
69546;SHT31;56766;52.260;20.746;2023-02-01T03:11:15;2.93;87.90
69546;SHT31;56766;52.260;20.746;2023-02-01T03:19:28;2.94;88.11
69546;SHT31;56766;52.260;20.746;2023-02-01T03:22:07;2.96;88.27
69546;SHT31;56766;52.260;20.746;2023-02-01T03:24:45;2.96;88.46
69546;SHT31;56766;52.260;20.746;2023-02-01T03:27:34;2.98;88.56
69546;SHT31;56766;52.260;20.746;2023-02-01T03:30:11;3.01;88.63
69546;SHT31;56766;52.260;20.746;2023-02-01T03:32:48;3.04;88.69
69546;SHT31;56766;52.260;20.746;2023-02-01T03:35:46;3.04;88.71
69546;SHT31;56766;52.260;20.746;2023-02-01T03:44:12;3.08;88.80
69546;SHT31;56766;52.260;20.746;2023-02-01T03:46:54;3.10;88.77
69546;SHT31;56766;52.260;20.746;2023-02-01T03:49:31;3.13;88.69
69546;SHT31;56766;52.260;20.746;2023-02-01T03:52:02;3.15;88.70
69546;SHT31;56766;52.260;20.746;2023-02-01T03:54:33;3.17;88.68
69546;SHT31;56766;52.260;20.746;2023-02-01T03:57:06;3.17;88.69
69546;SHT31;56766;52.260;20.746;2023-02-01T03:59:42;3.17;88.67
69546;SHT31;56766;52.260;20.746;2023-02-01T04:02:12;3.16;88.62
69546;SHT31;56766;52.260;20.746;2023-02-01T04:04:38;3.15;88.62
69546;SHT31;56766;52.260;20.746;2023-02-01T04:07:05;3.16;88.63
69546;SHT31;56766;52.260;20.746;2023-02-01T04:09:32;3.17;88.60
69546;SHT31;56766;52.260;20.746;2023-02-01T04:11:59;3.17;88.44
69546;SHT31;56766;52.260;20.746;2023-02-01T04:14:25;3.16;88.40
69546;SHT31;56766;52.260;20.746;2023-02-01T04:16:52;3.15;88.41
69546;SHT31;56766;52.260;20.746;2023-02-01T04:19:19;3.15;88.38
69546;SHT31;56766;52.260;20.746;2023-02-01T04:21:45;3.15;88.28
69546;SHT31;56766;52.260;20.746;2023-02-01T04:24:12;3.16;88.23
69546;SHT31;56766;52.260;20.746;2023-02-01T04:26:39;3.15;88.17
69546;SHT31;56766;52.260;20.746;2023-02-01T04:29:05;3.15;88.13
69546;SHT31;56766;52.260;20.746;2023-02-01T04:31:32;3.15;88.17
69546;SHT31;56766;52.260;20.746;2023-02-01T04:33:58;3.16;88.10
69546;SHT31;56766;52.260;20.746;2023-02-01T04:36:25;3.17;88.02
69546;SHT31;56766;52.260;20.746;2023-02-01T04:38:52;3.15;87.90
69546;SHT31;56766;52.260;20.746;2023-02-01T04:41:19;3.17;87.96
69546;SHT31;56766;52.260;20.746;2023-02-01T04:43:49;3.18;87.90
69546;SHT31;56766;52.260;20.746;2023-02-01T04:46:17;3.18;87.84
69546;SHT31;56766;52.260;20.746;2023-02-01T04:48:43;3.18;87.74
69546;SHT31;56766;52.260;20.746;2023-02-01T04:51:11;3.16;87.71
69546;SHT31;56766;52.260;20.746;2023-02-01T04:53:38;3.15;87.68
69546;SHT31;56766;52.260;20.746;2023-02-01T04:56:05;3.14;87.57
69546;SHT31;56766;52.260;20.746;2023-02-01T04:58:32;3.14;87.51
69546;SHT31;56766;52.260;20.746;2023-02-01T05:01:02;3.14;87.52
69546;SHT31;56766;52.260;20.746;2023-02-01T05:03:32;3.13;87.55
69546;SHT31;56766;52.260;20.746;2023-02-01T05:05:59;3.13;87.65
69546;SHT31;56766;52.260;20.746;2023-02-01T05:08:26;3.14;87.63
69546;SHT31;56766;52.260;20.746;2023-02-01T05:10:55;3.14;87.61
69546;SHT31;56766;52.260;20.746;2023-02-01T05:13:21;3.13;87.60
69546;SHT31;56766;52.260;20.746;2023-02-01T05:16:07;3.14;87.58
69546;SHT31;56766;52.260;20.746;2023-02-01T05:18:34;3.15;87.42
69546;SHT31;56766;52.260;20.746;2023-02-01T05:21:01;3.15;87.31
69546;SHT31;56766;52.260;20.746;2023-02-01T05:23:28;3.16;87.31
69546;SHT31;56766;52.260;20.746;2023-02-01T05:25:59;3.16;87.32
69546;SHT31;56766;52.260;20.746;2023-02-01T05:28:28;3.15;87.25
69546;SHT31;56766;52.260;20.746;2023-02-01T05:30:54;3.14;87.31
69546;SHT31;56766;52.260;20.746;2023-02-01T05:33:21;3.13;87.34
69546;SHT31;56766;52.260;20.746;2023-02-01T05:35:47;3.09;87.25
69546;SHT31;56766;52.260;20.746;2023-02-01T05:38:14;3.07;87.26
69546;SHT31;56766;52.260;20.746;2023-02-01T05:40:40;3.01;87.17
69546;SHT31;56766;52.260;20.746;2023-02-01T05:43:07;2.99;87.21
69546;SHT31;56766;52.260;20.746;2023-02-01T05:45:33;2.95;87.35
69546;SHT31;56766;52.260;20.746;2023-02-01T05:48:00;2.94;87.42
69546;SHT31;56766;52.260;20.746;2023-02-01T05:50:26;2.96;87.43
69546;SHT31;56766;52.260;20.746;2023-02-01T05:52:53;2.98;87.50
69546;SHT31;56766;52.260;20.746;2023-02-01T05:55:20;2.97;87.47
69546;SHT31;56766;52.260;20.746;2023-02-01T05:57:47;2.99;87.53
69546;SHT31;56766;52.260;20.746;2023-02-01T06:00:13;3.01;87.60
69546;SHT31;56766;52.260;20.746;2023-02-01T06:02:40;3.02;87.61
69546;SHT31;56766;52.260;20.746;2023-02-01T06:05:07;3.04;87.70
69546;SHT31;56766;52.260;20.746;2023-02-01T06:07:34;3.05;87.67
69546;SHT31;56766;52.260;20.746;2023-02-01T06:10:00;3.05;87.61
69546;SHT31;56766;52.260;20.746;2023-02-01T06:12:27;3.06;87.63
69546;SHT31;56766;52.260;20.746;2023-02-01T06:14:55;3.05;87.59
69546;SHT31;56766;52.260;20.746;2023-02-01T06:17:21;3.03;87.63
69546;SHT31;56766;52.260;20.746;2023-02-01T06:19:48;3.03;87.70
69546;SHT31;56766;52.260;20.746;2023-02-01T06:22:15;3.04;87.66
69546;SHT31;56766;52.260;20.746;2023-02-01T06:24:41;3.06;87.66
69546;SHT31;56766;52.260;20.746;2023-02-01T06:27:08;3.07;87.52
69546;SHT31;56766;52.260;20.746;2023-02-01T06:29:39;3.08;87.46
69546;SHT31;56766;52.260;20.746;2023-02-01T06:32:06;3.09;87.39
69546;SHT31;56766;52.260;20.746;2023-02-01T06:34:32;3.11;87.40
69546;SHT31;56766;52.260;20.746;2023-02-01T06:36:59;3.10;87.40
69546;SHT31;56766;52.260;20.746;2023-02-01T06:39:26;3.09;87.39
69546;SHT31;56766;52.260;20.746;2023-02-01T06:41:54;3.10;87.39
69546;SHT31;56766;52.260;20.746;2023-02-01T06:44:21;3.11;87.43
69546;SHT31;56766;52.260;20.746;2023-02-01T06:46:47;3.11;87.41
69546;SHT31;56766;52.260;20.746;2023-02-01T06:49:14;3.10;87.34
69546;SHT31;56766;52.260;20.746;2023-02-01T06:51:40;3.11;87.35
69546;SHT31;56766;52.260;20.746;2023-02-01T06:54:07;3.13;87.31
69546;SHT31;56766;52.260;20.746;2023-02-01T06:56:33;3.15;87.40
69546;SHT31;56766;52.260;20.746;2023-02-01T06:59:03;3.18;87.38
69546;SHT31;56766;52.260;20.746;2023-02-01T07:01:31;3.19;87.30
69546;SHT31;56766;52.260;20.746;2023-02-01T07:03:57;3.19;87.16
69546;SHT31;56766;52.260;20.746;2023-02-01T07:06:24;3.21;86.97
69546;SHT31;56766;52.260;20.746;2023-02-01T07:08:51;3.24;86.68
69546;SHT31;56766;52.260;20.746;2023-02-01T07:11:18;3.27;86.64
69546;SHT31;56766;52.260;20.746;2023-02-01T07:13:45;3.27;86.73
69546;SHT31;56766;52.260;20.746;2023-02-01T07:16:16;3.27;86.75
69546;SHT31;56766;52.260;20.746;2023-02-01T07:18:44;3.28;86.93
69546;SHT31;56766;52.260;20.746;2023-02-01T07:21:12;3.29;87.03
69546;SHT31;56766;52.260;20.746;2023-02-01T07:23:39;3.30;87.05
69546;SHT31;56766;52.260;20.746;2023-02-01T07:26:09;3.32;87.16
69546;SHT31;56766;52.260;20.746;2023-02-01T07:28:39;3.34;87.20
69546;SHT31;56766;52.260;20.746;2023-02-01T07:31:15;3.37;87.15
69546;SHT31;56766;52.260;20.746;2023-02-01T07:33:49;3.39;87.11
69546;SHT31;56766;52.260;20.746;2023-02-01T07:36:19;3.42;87.12
69546;SHT31;56766;52.260;20.746;2023-02-01T07:38:47;3.44;87.10
69546;SHT31;56766;52.260;20.746;2023-02-01T07:41:14;3.45;87.10
69546;SHT31;56766;52.260;20.746;2023-02-01T07:43:41;3.45;87.16
69546;SHT31;56766;52.260;20.746;2023-02-01T07:46:10;3.45;87.20
69546;SHT31;56766;52.260;20.746;2023-02-01T07:48:38;3.47;87.25
69546;SHT31;56766;52.260;20.746;2023-02-01T07:51:11;3.49;87.19
69546;SHT31;56766;52.260;20.746;2023-02-01T07:53:40;3.51;86.98
69546;SHT31;56766;52.260;20.746;2023-02-01T07:56:19;3.52;86.95
69546;SHT31;56766;52.260;20.746;2023-02-01T07:58:54;3.54;86.97
69546;SHT31;56766;52.260;20.746;2023-02-01T08:01:24;3.55;87.02
69546;SHT31;56766;52.260;20.746;2023-02-01T08:04:12;3.55;86.98
69546;SHT31;56766;52.260;20.746;2023-02-01T08:06:39;3.57;86.90
69546;SHT31;56766;52.260;20.746;2023-02-01T08:09:07;3.58;86.94
69546;SHT31;56766;52.260;20.746;2023-02-01T08:11:34;3.59;86.92
69546;SHT31;56766;52.260;20.746;2023-02-01T08:14:05;3.59;86.79
69546;SHT31;56766;52.260;20.746;2023-02-01T08:16:34;3.60;86.49
69546;SHT31;56766;52.260;20.746;2023-02-01T08:19:08;3.60;86.37
69546;SHT31;56766;52.260;20.746;2023-02-01T08:22:05;3.64;86.11
69546;SHT31;56766;52.260;20.746;2023-02-01T08:24:33;3.70;85.99
69546;SHT31;56766;52.260;20.746;2023-02-01T08:27:01;3.75;86.32
69546;SHT31;56766;52.260;20.746;2023-02-01T08:29:28;3.76;86.36
69546;SHT31;56766;52.260;20.746;2023-02-01T08:31:55;3.74;86.34
69546;SHT31;56766;52.260;20.746;2023-02-01T08:34:22;3.76;86.82
69546;SHT31;56766;52.260;20.746;2023-02-01T08:36:48;3.78;87.21
69546;SHT31;56766;52.260;20.746;2023-02-01T08:39:15;3.81;87.42
69546;SHT31;56766;52.260;20.746;2023-02-01T08:41:42;3.85;87.56
69546;SHT31;56766;52.260;20.746;2023-02-01T08:44:29;3.88;87.33
69546;SHT31;56766;52.260;20.746;2023-02-01T08:46:55;3.87;87.17
69546;SHT31;56766;52.260;20.746;2023-02-01T08:49:22;3.84;87.12
69546;SHT31;56766;52.260;20.746;2023-02-01T08:51:48;3.83;87.12
69546;SHT31;56766;52.260;20.746;2023-02-01T08:54:15;3.84;86.79
69546;SHT31;56766;52.260;20.746;2023-02-01T08:56:42;3.89;86.90
69546;SHT31;56766;52.260;20.746;2023-02-01T08:59:08;3.94;86.74
69546;SHT31;56766;52.260;20.746;2023-02-01T09:01:35;3.93;86.65
69546;SHT31;56766;52.260;20.746;2023-02-01T09:04:02;3.91;86.49
69546;SHT31;56766;52.260;20.746;2023-02-01T09:06:28;3.89;86.26
69546;SHT31;56766;52.260;20.746;2023-02-01T09:08:55;3.89;86.05
69546;SHT31;56766;52.260;20.746;2023-02-01T09:11:22;3.90;85.86
69546;SHT31;56766;52.260;20.746;2023-02-01T09:13:49;3.93;85.97
69546;SHT31;56766;52.260;20.746;2023-02-01T09:16:15;3.98;85.95
69546;SHT31;56766;52.260;20.746;2023-02-01T09:18:42;4.01;85.87
69546;SHT31;56766;52.260;20.746;2023-02-01T09:21:09;4.05;85.82
69546;SHT31;56766;52.260;20.746;2023-02-01T09:23:35;4.09;85.64
69546;SHT31;56766;52.260;20.746;2023-02-01T09:26:04;4.14;85.40
69546;SHT31;56766;52.260;20.746;2023-02-01T09:28:31;4.17;85.15
69546;SHT31;56766;52.260;20.746;2023-02-01T09:31:01;4.19;84.95
69546;SHT31;56766;52.260;20.746;2023-02-01T09:33:28;4.24;84.78
69546;SHT31;56766;52.260;20.746;2023-02-01T09:36:00;4.33;84.87
69546;SHT31;56766;52.260;20.746;2023-02-01T09:38:29;4.46;84.81
69546;SHT31;56766;52.260;20.746;2023-02-01T09:40:57;4.59;84.78
69546;SHT31;56766;52.260;20.746;2023-02-01T09:43:37;4.72;84.39
69546;SHT31;56766;52.260;20.746;2023-02-01T09:46:28;4.82;83.69
69546;SHT31;56766;52.260;20.746;2023-02-01T09:49:04;4.90;83.71
69546;SHT31;56766;52.260;20.746;2023-02-01T09:51:45;4.96;83.36
69546;SHT31;56766;52.260;20.746;2023-02-01T09:54:18;5.01;83.15
69546;SHT31;56766;52.260;20.746;2023-02-01T09:57:00;5.05;82.62
69546;SHT31;56766;52.260;20.746;2023-02-01T09:59:41;5.12;83.16
69546;SHT31;56766;52.260;20.746;2023-02-01T10:02:26;5.19;82.94
69546;SHT31;56766;52.260;20.746;2023-02-01T10:04:58;5.19;82.75
69546;SHT31;56766;52.260;20.746;2023-02-01T10:07:42;5.17;82.93
69546;SHT31;56766;52.260;20.746;2023-02-01T10:10:43;5.13;82.84
69546;SHT31;56766;52.260;20.746;2023-02-01T10:19:21;4.96;82.39
69546;SHT31;56766;52.260;20.746;2023-02-01T10:22:02;4.96;82.85
69546;SHT31;56766;52.260;20.746;2023-02-01T10:27:52;4.99;82.93
69546;SHT31;56766;52.260;20.746;2023-02-01T10:30:22;5.08;82.54
69546;SHT31;56766;52.260;20.746;2023-02-01T10:33:25;5.17;82.81
69546;SHT31;56766;52.260;20.746;2023-02-01T10:39:05;5.24;82.46
69546;SHT31;56766;52.260;20.746;2023-02-01T10:41:36;5.26;82.79
69546;SHT31;56766;52.260;20.746;2023-02-01T10:44:12;5.30;82.79
69546;SHT31;56766;52.260;20.746;2023-02-01T10:46:42;5.30;82.78
69546;SHT31;56766;52.260;20.746;2023-02-01T10:49:52;5.35;82.71
69546;SHT31;56766;52.260;20.746;2023-02-01T10:52:33;5.47;82.78
69546;SHT31;56766;52.260;20.746;2023-02-01T10:58:17;5.50;82.20
69546;SHT31;56766;52.260;20.746;2023-02-01T11:00:49;5.49;82.06
69546;SHT31;56766;52.260;20.746;2023-02-01T11:03:39;5.57;81.54
69546;SHT31;56766;52.260;20.746;2023-02-01T11:06:19;5.81;81.99
69546;SHT31;56766;52.260;20.746;2023-02-01T11:08:57;6.05;81.21
69546;SHT31;56766;52.260;20.746;2023-02-01T11:11:27;6.27;81.05
69546;SHT31;56766;52.260;20.746;2023-02-01T11:13:58;6.31;80.73
69546;SHT31;56766;52.260;20.746;2023-02-01T11:16:35;6.23;80.17
69546;SHT31;56766;52.260;20.746;2023-02-01T11:19:04;6.16;80.63
69546;SHT31;56766;52.260;20.746;2023-02-01T11:21:33;6.03;80.44
69546;SHT31;56766;52.260;20.746;2023-02-01T11:24:04;5.89;80.66
69546;SHT31;56766;52.260;20.746;2023-02-01T11:26:40;5.78;81.03
69546;SHT31;56766;52.260;20.746;2023-02-01T11:29:17;5.67;80.90
69546;SHT31;56766;52.260;20.746;2023-02-01T11:31:57;5.60;81.42
69546;SHT31;56766;52.260;20.746;2023-02-01T11:34:35;5.58;81.54
69546;SHT31;56766;52.260;20.746;2023-02-01T11:37:19;5.58;81.50
69546;SHT31;56766;52.260;20.746;2023-02-01T11:39:55;5.63;81.75
69546;SHT31;56766;52.260;20.746;2023-02-01T11:42:26;5.81;81.79
69546;SHT31;56766;52.260;20.746;2023-02-01T11:45:23;6.02;81.65
69546;SHT31;56766;52.260;20.746;2023-02-01T11:47:53;6.28;81.55
69546;SHT31;56766;52.260;20.746;2023-02-01T11:56:42;6.28;81.60
69546;SHT31;56766;52.260;20.746;2023-02-01T11:59:34;6.20;81.34
69546;SHT31;56766;52.260;20.746;2023-02-01T12:14:01;5.90;82.37
69546;SHT31;56766;52.260;20.746;2023-02-01T12:26:58;5.96;81.63
69546;SHT31;56766;52.260;20.746;2023-02-01T12:30:02;5.86;82.16
69546;SHT31;56766;52.260;20.746;2023-02-01T12:35:57;5.80;81.91
69546;SHT31;56766;52.260;20.746;2023-02-01T12:39:04;5.82;81.96
69546;SHT31;56766;52.260;20.746;2023-02-01T12:42:21;5.86;81.90
69546;SHT31;56766;52.260;20.746;2023-02-01T12:45:02;5.97;81.86
69546;SHT31;56766;52.260;20.746;2023-02-01T12:47:56;6.02;81.89
69546;SHT31;56766;52.260;20.746;2023-02-01T12:50:43;5.98;81.46
69546;SHT31;56766;52.260;20.746;2023-02-01T12:54:18;5.99;81.61
69546;SHT31;56766;52.260;20.746;2023-02-01T12:56:53;6.04;80.60
69546;SHT31;56766;52.260;20.746;2023-02-01T12:59:36;6.00;80.37
69546;SHT31;56766;52.260;20.746;2023-02-01T13:02:33;5.92;80.56
69546;SHT31;56766;52.260;20.746;2023-02-01T13:05:12;5.80;81.05
69546;SHT31;56766;52.260;20.746;2023-02-01T13:08:14;5.73;81.22
69546;SHT31;56766;52.260;20.746;2023-02-01T13:10:47;5.64;81.49
69546;SHT31;56766;52.260;20.746;2023-02-01T13:13:44;5.60;81.85
69546;SHT31;56766;52.260;20.746;2023-02-01T13:16:27;5.57;82.21
69546;SHT31;56766;52.260;20.746;2023-02-01T13:19:16;5.53;82.23
69546;SHT31;56766;52.260;20.746;2023-02-01T13:21:53;5.47;82.19
69546;SHT31;56766;52.260;20.746;2023-02-01T13:24:31;5.44;82.23
69546;SHT31;56766;52.260;20.746;2023-02-01T13:27:14;5.41;82.23
69546;SHT31;56766;52.260;20.746;2023-02-01T13:30:06;5.39;82.25
69546;SHT31;56766;52.260;20.746;2023-02-01T13:33:18;5.34;82.21
69546;SHT31;56766;52.260;20.746;2023-02-01T13:36:27;5.31;82.53
69546;SHT31;56766;52.260;20.746;2023-02-01T13:39:35;5.28;82.70
69546;SHT31;56766;52.260;20.746;2023-02-01T13:45:47;5.18;82.82
69546;SHT31;56766;52.260;20.746;2023-02-01T13:48:28;5.14;82.82
69546;SHT31;56766;52.260;20.746;2023-02-01T13:51:02;5.10;82.88
69546;SHT31;56766;52.260;20.746;2023-02-01T13:53:32;5.09;82.95
69546;SHT31;56766;52.260;20.746;2023-02-01T13:56:14;5.09;83.04
69546;SHT31;56766;52.260;20.746;2023-02-01T13:58:45;5.09;83.17
69546;SHT31;56766;52.260;20.746;2023-02-01T14:03:55;5.12;83.12
69546;SHT31;56766;52.260;20.746;2023-02-01T14:11:50;5.32;83.19
69546;SHT31;56766;52.260;20.746;2023-02-01T14:19:28;5.31;82.37
69546;SHT31;56766;52.260;20.746;2023-02-01T14:24:55;5.19;82.35
69546;SHT31;56766;52.260;20.746;2023-02-01T14:27:27;5.16;82.18
69546;SHT31;56766;52.260;20.746;2023-02-01T14:30:05;5.17;82.13
69546;SHT31;56766;52.260;20.746;2023-02-01T14:32:37;5.15;81.78
69546;SHT31;56766;52.260;20.746;2023-02-01T14:35:28;5.13;81.68
69546;SHT31;56766;52.260;20.746;2023-02-01T14:38:01;5.10;81.43
69546;SHT31;56766;52.260;20.746;2023-02-01T14:40:34;5.07;81.66
69546;SHT31;56766;52.260;20.746;2023-02-01T14:43:02;5.05;81.69
69546;SHT31;56766;52.260;20.746;2023-02-01T15:01:26;4.89;82.41
69546;SHT31;56766;52.260;20.746;2023-02-01T15:04:13;4.86;82.50
69546;SHT31;56766;52.260;20.746;2023-02-01T15:06:52;4.83;82.57
69546;SHT31;56766;52.260;20.746;2023-02-01T15:09:46;4.81;82.86
69546;SHT31;56766;52.260;20.746;2023-02-01T15:12:24;4.78;82.97
69546;SHT31;56766;52.260;20.746;2023-02-01T15:15:14;4.77;83.01
69546;SHT31;56766;52.260;20.746;2023-02-01T15:17:55;4.75;83.07
69546;SHT31;56766;52.260;20.746;2023-02-01T15:20:27;4.70;82.80
69546;SHT31;56766;52.260;20.746;2023-02-01T15:23:01;4.68;82.82
69546;SHT31;56766;52.260;20.746;2023-02-01T15:25:38;4.64;82.96
69546;SHT31;56766;52.260;20.746;2023-02-01T15:28:13;4.62;83.07
69546;SHT31;56766;52.260;20.746;2023-02-01T15:30:59;4.60;83.16
69546;SHT31;56766;52.260;20.746;2023-02-01T15:33:29;4.60;83.33
69546;SHT31;56766;52.260;20.746;2023-02-01T15:36:07;4.58;83.26
69546;SHT31;56766;52.260;20.746;2023-02-01T15:38:41;4.52;83.26
69546;SHT31;56766;52.260;20.746;2023-02-01T15:44:04;4.46;83.61
69546;SHT31;56766;52.260;20.746;2023-02-01T15:46:44;4.43;83.81
69546;SHT31;56766;52.260;20.746;2023-02-01T15:49:27;4.39;83.93
69546;SHT31;56766;52.260;20.746;2023-02-01T15:51:59;4.38;84.11
69546;SHT31;56766;52.260;20.746;2023-02-01T15:54:42;4.37;84.24
69546;SHT31;56766;52.260;20.746;2023-02-01T15:57:24;4.34;84.37
69546;SHT31;56766;52.260;20.746;2023-02-01T16:00:02;4.31;84.49
69546;SHT31;56766;52.260;20.746;2023-02-01T16:02:42;4.27;84.57
69546;SHT31;56766;52.260;20.746;2023-02-01T16:05:38;4.26;84.69
69546;SHT31;56766;52.260;20.746;2023-02-01T16:08:19;4.23;84.86
69546;SHT31;56766;52.260;20.746;2023-02-01T16:10:54;4.22;84.91
69546;SHT31;56766;52.260;20.746;2023-02-01T16:13:26;4.21;84.96
69546;SHT31;56766;52.260;20.746;2023-02-01T16:15:52;4.21;84.99
69546;SHT31;56766;52.260;20.746;2023-02-01T16:18:19;4.23;85.06
69546;SHT31;56766;52.260;20.746;2023-02-01T16:20:47;4.22;85.04
69546;SHT31;56766;52.260;20.746;2023-02-01T16:23:14;4.24;85.01
69546;SHT31;56766;52.260;20.746;2023-02-01T16:25:41;4.26;84.92
69546;SHT31;56766;52.260;20.746;2023-02-01T16:28:08;4.26;85.00
69546;SHT31;56766;52.260;20.746;2023-02-01T16:30:35;4.28;85.06
69546;SHT31;56766;52.260;20.746;2023-02-01T16:33:03;4.27;85.10
69546;SHT31;56766;52.260;20.746;2023-02-01T16:35:35;4.27;85.10
69546;SHT31;56766;52.260;20.746;2023-02-01T16:38:12;4.28;85.17
69546;SHT31;56766;52.260;20.746;2023-02-01T16:40:41;4.28;85.15
69546;SHT31;56766;52.260;20.746;2023-02-01T16:43:13;4.28;85.16
69546;SHT31;56766;52.260;20.746;2023-02-01T16:45:43;4.28;85.17
69546;SHT31;56766;52.260;20.746;2023-02-01T16:48:28;4.29;85.25
69546;SHT31;56766;52.260;20.746;2023-02-01T16:50:59;4.30;85.14
69546;SHT31;56766;52.260;20.746;2023-02-01T16:53:31;4.30;85.10
69546;SHT31;56766;52.260;20.746;2023-02-01T16:55:58;4.28;85.01
69546;SHT31;56766;52.260;20.746;2023-02-01T16:58:26;4.26;85.06
69546;SHT31;56766;52.260;20.746;2023-02-01T17:00:54;4.26;85.15
69546;SHT31;56766;52.260;20.746;2023-02-01T17:03:22;4.25;85.24
69546;SHT31;56766;52.260;20.746;2023-02-01T17:05:52;4.27;85.30
69546;SHT31;56766;52.260;20.746;2023-02-01T17:08:29;4.25;85.33
69546;SHT31;56766;52.260;20.746;2023-02-01T17:10:58;4.26;85.35
69546;SHT31;56766;52.260;20.746;2023-02-01T17:13:24;4.25;85.32
69546;SHT31;56766;52.260;20.746;2023-02-01T17:18:47;4.25;85.38
69546;SHT31;56766;52.260;20.746;2023-02-01T17:21:20;4.24;85.34
69546;SHT31;56766;52.260;20.746;2023-02-01T17:23:46;4.25;85.37
69546;SHT31;56766;52.260;20.746;2023-02-01T17:26:13;4.24;85.35
69546;SHT31;56766;52.260;20.746;2023-02-01T17:28:40;4.24;85.30
69546;SHT31;56766;52.260;20.746;2023-02-01T17:31:13;4.22;85.33
69546;SHT31;56766;52.260;20.746;2023-02-01T17:33:43;4.20;85.31
69546;SHT31;56766;52.260;20.746;2023-02-01T17:36:15;4.19;85.35
69546;SHT31;56766;52.260;20.746;2023-02-01T17:38:44;4.18;85.53
69546;SHT31;56766;52.260;20.746;2023-02-01T17:41:12;4.17;85.70
69546;SHT31;56766;52.260;20.746;2023-02-01T17:43:40;4.14;85.81
69546;SHT31;56766;52.260;20.746;2023-02-01T17:46:12;4.13;85.85
69546;SHT31;56766;52.260;20.746;2023-02-01T17:48:41;4.10;85.87
69546;SHT31;56766;52.260;20.746;2023-02-01T17:51:16;4.08;86.04
69546;SHT31;56766;52.260;20.746;2023-02-01T17:53:45;4.07;86.06
69546;SHT31;56766;52.260;20.746;2023-02-01T17:56:18;4.05;86.11
69546;SHT31;56766;52.260;20.746;2023-02-01T17:58:46;4.05;86.09
69546;SHT31;56766;52.260;20.746;2023-02-01T18:01:18;4.06;86.10
69546;SHT31;56766;52.260;20.746;2023-02-01T18:03:48;4.03;86.13
69546;SHT31;56766;52.260;20.746;2023-02-01T18:06:18;4.02;86.10
69546;SHT31;56766;52.260;20.746;2023-02-01T18:08:48;4.02;86.17
69546;SHT31;56766;52.260;20.746;2023-02-01T18:11:20;4.00;86.18